Time;durP1;ratioP1;P1;durP2;ratioP2;P2;SDS_P1;SDS_P2;PMS_P1;PMS_P2;Temp;Humidity;BMP_temperature;BMP_pressure;BME280_temperature;BME280_humidity;BME280_pressure;Samples;Min_cycle;Max_cycle;Signal;HPM_P1;HPM_P2
2024/01/12 00:03:25;;;;;;;2.53;1.83;;;;;;;;;;20870900;28;20301;-82
2024/01/12 00:13:27;;;;;;;4.00;2.10;;;;;;;;;;20829231;28;20218;-87
2024/01/12 00:23:29;;;;;;;1.67;1.43;;;;;;;;;;20809606;28;20560;-85
2024/01/12 00:33:31;;;;;;;3.43;2.00;;;;;;;;;;20852521;28;20219;-83
2024/01/12 00:43:32;;;;;;;2.17;1.87;;;;;;;;;;20858641;28;20231;-86
2024/01/12 00:53:34;;;;;;;2.33;1.77;;;;;;;;;;20796015;28;20276;-84
2024/01/12 01:03:39;;;;;;;2.23;1.60;;;;;;;;;;20833529;28;20226;-83
2024/01/12 01:13:41;;;;;;;2.20;1.30;;;;;;;;;;20846732;28;20264;-84
2024/01/12 01:23:43;;;;;;;1.73;1.57;;;;;;;;;;20833018;28;20222;-86
2024/01/12 01:33:44;;;;;;;2.60;1.63;;;;;;;;;;20832947;28;20230;-86
2024/01/12 01:43:46;;;;;;;1.63;1.40;;;;;;;;;;20844152;28;20249;-84
2024/01/12 01:53:48;;;;;;;1.80;1.43;;;;;;;;;;20823676;28;20219;-83
2024/01/12 02:03:50;;;;;;;1.33;1.07;;;;;;;;;;20835305;28;20254;-87
2024/01/12 02:13:51;;;;;;;1.73;1.37;;;;;;;;;;20874646;28;20198;-85
2024/01/12 02:23:53;;;;;;;2.80;1.53;;;;;;;;;;20819315;28;20222;-86
2024/01/12 02:33:55;;;;;;;0.77;0.77;;;;;;;;;;20818580;28;20257;-83
2024/01/12 02:43:57;;;;;;;1.33;1.10;;;;;;;;;;20846353;28;20214;-86
2024/01/12 02:53:59;;;;;;;1.80;1.40;;;;;;;;;;20812742;28;20218;-87
2024/01/12 03:04:01;;;;;;;0.93;0.83;;;;;;;;;;20833404;28;20234;-86
2024/01/12 03:14:03;;;;;;;1.70;1.10;;;;;;;;;;20819326;28;20210;-85
2024/01/12 03:24:05;;;;;;;2.63;2.20;;;;;;;;;;20836721;28;20637;-84
2024/01/12 03:34:07;;;;;;;2.60;1.83;;;;;;;;;;20820592;28;20252;-83
2024/01/12 03:54:23;;;;;;;1.80;1.50;;;;;;;;;;21070279;27;20588;-70
2024/01/12 04:04:24;;;;;;;1.70;1.30;;;;;;;;;;20959546;28;20217;-70
2024/01/12 04:14:26;;;;;;;1.73;1.63;;;;;;;;;;20968554;28;20209;-71
2024/01/12 04:24:28;;;;;;;2.40;1.83;;;;;;;;;;20975577;28;20570;-71
2024/01/12 04:34:29;;;;;;;2.33;1.90;;;;;;;;;;20971995;28;20282;-70
2024/01/12 04:44:31;;;;;;;1.37;1.27;;;;;;;;;;20970879;28;20267;-71
2024/01/12 04:54:33;;;;;;;2.87;2.07;;;;;;;;;;20960594;28;20201;-71
2024/01/12 05:04:34;;;;;;;2.27;1.83;;;;;;;;;;20929001;28;20210;-71
2024/01/12 05:14:36;;;;;;;2.90;2.30;;;;;;;;;;20916075;28;20268;-71
2024/01/12 05:24:38;;;;;;;2.33;1.87;;;;;;;;;;20932351;28;20582;-73
2024/01/12 05:34:40;;;;;;;4.30;3.47;;;;;;;;;;20923065;28;20271;-72
2024/01/12 05:44:41;;;;;;;3.17;2.03;;;;;;;;;;20912689;28;20283;-72
2024/01/12 05:54:43;;;;;;;3.23;2.20;;;;;;;;;;20916597;28;20210;-74
2024/01/12 06:04:45;;;;;;;2.83;2.30;;;;;;;;;;20913741;28;20575;-73
2024/01/12 06:14:47;;;;;;;7.40;2.70;;;;;;;;;;20905986;28;20271;-73
2024/01/12 06:24:54;;;;;;;3.20;2.13;;;;;;;;;;20886778;28;20210;-75
2024/01/12 06:34:56;;;;;;;4.43;3.07;;;;;;;;;;20902896;28;20282;-73
2024/01/12 06:44:58;;;;;;;3.53;2.63;;;;;;;;;;20896655;28;20682;-73
2024/01/12 06:54:59;;;;;;;4.03;2.70;;;-2.80;99.90;;;;;;20906523;28;20206;-74
2024/01/12 07:05:04;;;;;;;5.20;3.33;;;;;;;;;;20906147;28;20226;-73
2024/01/12 07:15:06;;;;;;;2.90;2.23;;;;;;;;;;20915767;28;20625;-74
2024/01/12 07:25:08;;;;;;;3.73;2.23;;;;;;;;;;20905117;28;20558;-74
2024/01/12 07:35:11;;;;;;;4.43;2.73;;;;;;;;;;20896632;28;20210;-73
2024/01/12 07:45:13;;;;;;;2.80;2.17;;;;;;;;;;20901370;28;20264;-73
2024/01/12 07:55:16;;;;;;;3.10;2.43;;;;;;;;;;20898153;28;20222;-74
2024/01/12 08:05:17;;;;;;;3.60;2.23;;;;;;;;;;20905530;28;20584;-74
2024/01/12 08:15:20;;;;;;;4.00;2.30;;;;;;;;;;20890869;28;20701;-74
2024/01/12 08:25:23;;;;;;;5.10;3.30;;;;;;;;;;20884151;28;20222;-74
2024/01/12 08:35:26;;;;;;;3.00;2.27;;;;;;;;;;20920241;28;20637;-74
2024/01/12 08:45:27;;;;;;;1.80;1.70;;;;;;;;;;20917709;28;20217;-74
2024/01/12 08:55:29;;;;;;;2.37;1.87;;;;;;;;;;20910225;28;20205;-74
2024/01/12 09:05:31;;;;;;;1.37;1.13;;;;;;;;;;20912140;28;20233;-74
2024/01/12 09:15:33;;;;;;;3.00;2.10;;;;;;;;;;20903862;28;20251;-74
2024/01/12 09:25:34;;;;;;;2.40;1.60;;;;;;;;;;20868515;22;20230;-83
2024/01/12 09:35:36;;;;;;;4.03;2.43;;;;;;;;;;20796998;28;20229;-84
2024/01/12 09:45:43;;;;;;;1.87;1.73;;;;;;;;;;20767524;28;20584;-84
2024/01/12 09:55:44;;;;;;;3.97;2.47;;;;;;;;;;20790921;28;20288;-83
2024/01/12 10:05:46;;;;;;;4.47;2.20;;;;;;;;;;20751921;28;20280;-86
2024/01/12 10:15:48;;;;;;;3.43;2.30;;;-2.40;99.90;;;;;;20828898;28;20284;-83
2024/01/12 10:26:00;;;;;;;4.30;2.17;;;;;;;;;;20779549;28;20723;-82
2024/01/12 10:36:21;;;;;;;6.07;2.33;;;-2.40;99.90;;;;;;20774757;28;20253;-82
2024/01/12 10:46:39;;;;;;;2.80;2.13;;;-2.40;99.90;;;;;;20746534;28;20306;-84
2024/01/12 10:56:42;;;;;;;3.87;2.30;;;;;;;;;;20773202;28;20191;-82
2024/01/12 11:06:48;;;;;;;4.77;2.83;;;-2.60;99.90;;;;;;20750814;28;20774;-84
2024/01/12 11:16:50;;;;;;;3.97;2.17;;;;;;;;;;20762963;28;20245;-83
2024/01/12 11:26:53;;;;;;;7.57;3.83;;;;;;;;;;20784382;28;20288;-83
2024/01/12 11:36:58;;;;;;;5.07;2.97;;;;;;;;;;20771634;28;20210;-83
2024/01/12 11:47:01;;;;;;;4.20;2.73;;;-2.40;99.90;;;;;;20786457;28;20214;-81
2024/01/12 11:57:02;;;;;;;3.40;2.53;;;;;;;;;;20794460;28;20494;-83
2024/01/12 12:07:04;;;;;;;2.33;2.10;;;;;;;;;;20766982;28;20244;-85
2024/01/12 12:17:07;;;;;;;1.60;1.50;;;;;;;;;;20790287;28;20222;-84
2024/01/12 12:27:10;;;;;;;3.93;2.30;;;;;;;;;;20816309;28;20695;-83
2024/01/12 12:37:13;;;;;;;3.70;2.57;;;;;;;;;;20825777;28;20284;-82
2024/01/12 12:47:15;;;;;;;4.47;2.73;;;;;;;;;;20803841;28;20231;-83
2024/01/12 12:57:17;;;;;;;3.47;2.43;;;;;;;;;;20807337;28;20294;-83
2024/01/12 13:07:18;;;;;;;3.87;2.97;;;;;;;;;;20819831;28;20273;-82
2024/01/12 13:17:21;;;;;;;3.27;2.20;;;;;;;;;;20783007;28;20222;-83
2024/01/12 13:27:23;;;;;;;2.77;2.20;;;;;;;;;;20764617;28;20226;-84
2024/01/12 13:37:24;;;;;;;2.53;2.33;;;;;;;;;;20815630;28;20210;-85
2024/01/12 13:47:26;;;;;;;3.50;2.70;;;;;;;;;;20780421;28;20257;-83
2024/01/12 13:57:28;;;;;;;3.53;2.60;;;;;;;;;;20777851;28;20211;-84
2024/01/12 14:07:29;;;;;;;4.10;2.70;;;;;;;;;;20801993;28;20222;-84
2024/01/12 14:17:31;;;;;;;4.87;3.20;;;;;;;;;;20791372;28;20215;-83
2024/01/12 14:27:33;;;;;;;5.43;3.33;;;;;;;;;;20770794;28;20758;-82
2024/01/12 14:37:35;;;;;;;4.93;3.10;;;;;;;;;;20777801;28;20272;-84
2024/01/12 14:47:37;;;;;;;4.47;2.57;;;;;;;;;;20755234;28;20221;-84
2024/01/12 14:57:39;;;;;;;2.57;2.23;;;;;;;;;;20809386;28;20687;-83
2024/01/12 15:07:42;;;;;;;7.10;5.40;;;;;;;;;;20819003;28;20230;-84
2024/01/12 15:17:44;;;;;;;5.17;3.13;;;;;;;;;;20772364;28;20287;-85
2024/01/12 15:27:46;;;;;;;3.93;2.43;;;;;;;;;;20730535;28;20269;-84
2024/01/12 15:37:48;;;;;;;4.57;2.90;;;;;;;;;;20762554;28;20268;-84
2024/01/12 15:47:50;;;;;;;3.43;2.57;;;;;;;;;;20802028;28;20219;-84
2024/01/12 15:57:52;;;;;;;4.33;2.73;;;;;;;;;;20840550;28;20754;-84
2024/01/12 16:07:54;;;;;;;4.97;2.80;;;;;;;;;;20796995;28;20842;-84
2024/01/12 16:17:56;;;;;;;4.20;3.37;;;;;;;;;;20800803;28;20222;-82
2024/01/12 16:27:58;;;;;;;3.40;2.50;;;;;;;;;;20791640;28;20226;-84
2024/01/12 16:38:00;;;;;;;4.23;2.97;;;;;;;;;;20759248;28;20214;-83
2024/01/12 16:48:01;;;;;;;5.67;3.57;;;;;;;;;;20784676;28;20226;-82
2024/01/12 16:58:03;;;;;;;2.17;1.50;;;;;;;;;;20792968;28;20210;-84
2024/01/12 17:08:05;;;;;;;3.07;2.10;;;;;;;;;;20802029;28;20257;-83
2024/01/12 17:18:07;;;;;;;1.90;1.60;;;-1.50;99.90;;;;;;20765023;28;20260;-84
2024/01/12 17:28:09;;;;;;;2.40;1.87;;;;;;;;;;20791282;28;20280;-84
2024/01/12 17:38:11;;;;;;;3.63;2.13;;;;;;;;;;20771297;28;20608;-82
2024/01/12 17:48:13;;;;;;;3.27;1.70;;;;;;;;;;20822559;28;20274;-86
2024/01/12 17:58:15;;;;;;;3.17;1.80;;;;;;;;;;20791939;28;20635;-84
2024/01/12 18:08:17;;;;;;;2.03;1.70;;;;;;;;;;20781883;28;20222;-82
2024/01/12 18:18:19;;;;;;;3.40;2.13;;;;;;;;;;20763447;28;20218;-84
2024/01/12 18:28:21;;;;;;;2.57;2.30;;;;;;;;;;20811529;28;20222;-84
2024/01/12 18:38:23;;;;;;;3.07;2.30;;;;;;;;;;20782556;28;20680;-83
2024/01/12 18:48:27;;;;;;;1.90;1.50;;;;;;;;;;20776575;28;20281;-82
2024/01/12 18:58:28;;;;;;;2.60;1.83;;;;;;;;;;20749949;28;20210;-83
2024/01/12 19:08:30;;;;;;;2.43;2.03;;;;;;;;;;20754809;28;20264;-84
2024/01/12 19:18:32;;;;;;;3.00;2.43;;;;;;;;;;20763012;28;20214;-84
2024/01/12 19:28:34;;;;;;;1.20;1.03;;;;;;;;;;20798181;28;20300;-84
2024/01/12 19:38:36;;;;;;;1.80;1.47;;;;;;;;;;20781816;28;20210;-85
2024/01/12 19:48:38;;;;;;;2.50;1.90;;;;;;;;;;20832765;28;20296;-84
2024/01/12 19:58:40;;;;;;;2.10;1.80;;;;;;;;;;20822419;28;20226;-83
2024/01/12 20:08:43;;;;;;;3.27;2.63;;;;;;;;;;20811291;28;20292;-83
2024/01/12 20:18:49;;;;;;;3.70;2.30;;;;;;;;;;20807859;28;20212;-83
2024/01/12 20:28:51;;;;;;;3.93;2.13;;;;;;;;;;20786253;28;20273;-84
2024/01/12 20:38:53;;;;;;;2.40;1.80;;;;;;;;;;20819486;28;20231;-83
2024/01/12 20:48:55;;;;;;;2.23;1.53;;;;;;;;;;20787472;28;20219;-86
2024/01/12 20:59:00;;;;;;;4.53;2.47;;;;;;;;;;20800326;22;20235;-74
2024/01/12 21:09:01;;;;;;;2.53;2.17;;;;;;;;;;20739761;28;20235;-74
2024/01/12 21:19:03;;;;;;;3.60;2.37;;;;;;;;;;20718681;28;20587;-74
2024/01/12 21:29:06;;;;;;;3.10;2.17;;;;;;;;;;20703679;28;20793;-74
2024/01/12 21:39:09;;;;;;;2.23;1.90;;;;;;;;;;20753605;28;20226;-74
2024/01/12 21:49:10;;;;;;;3.00;2.13;;;;;;;;;;20750603;28;20281;-74
2024/01/12 21:59:12;;;;;;;3.53;2.40;;;;;;;;;;20773803;28;20218;-74
2024/01/12 22:09:14;;;;;;;3.50;2.00;;;;;;;;;;20775247;28;20246;-74
2024/01/12 22:19:16;;;;;;;2.57;1.87;;;;;;;;;;20761925;28;20281;-74
2024/01/12 22:29:17;;;;;;;3.93;2.50;;;;;;;;;;20783328;28;20218;-74
2024/01/12 22:39:19;;;;;;;4.47;2.63;;;;;;;;;;20737328;28;20554;-74
2024/01/12 22:49:21;;;;;;;3.40;2.00;;;;;;;;;;20738730;28;20340;-74
2024/01/12 22:59:23;;;;;;;3.57;2.80;;;;;;;;;;20733716;28;20235;-74
2024/01/12 23:09:25;;;;;;;3.67;1.73;;;;;;;;;;20736467;28;20288;-74
2024/01/12 23:19:27;;;;;;;3.40;2.47;;;;;;;;;;20717960;28;20266;-74
2024/01/12 23:29:29;;;;;;;2.73;2.03;;;;;;;;;;20701782;28;20293;-74
2024/01/12 23:39:31;;;;;;;3.73;2.30;;;;;;;;;;20731256;28;20215;-74
2024/01/12 23:49:32;;;;;;;3.13;2.00;;;;;;;;;;20733162;28;20289;-74
2024/01/12 23:59:34;;;;;;;3.43;2.37;;;;;;;;;;20704551;28;20297;-73
